Webcams

Webcam1&2         Webcam1 (Zeitraffer 2 Std.)        Webcam2 (Zeitraffer 2 Std.)

Webcam2 - Zeitraffer (die letzten zwei Stunden, Intervall: 10min)
cam2--20190522_083959M
cam2--20190522_084959M
cam2--20190522_085958M
cam2--20190522_090958M
cam2--20190522_091959M
cam2--20190522_092959M
cam2--20190522_093957M
cam2--20190522_094958M
cam2--20190522_095957M
cam2--20190522_100959M
cam2--20190522_101958M
cam2--20190522_103958M
cam2--20190522_110957M
01/13 
start stop bwd fwd

Webcam2 - Aktuell

Lokale Serverzeit 11:13 | 22.05.2019
Webcam-Lageplan

Webcam1&2        Webcam1 (Zeitraffer 2 Std.)        Webcam2 (Zeitraffer 2 Std.)

Webcam1 - Zeitraffer (die letzten zwei Stunden, Intervall: 10min)
cam1--20190522_084000M
cam1--20190522_084958M
cam1--20190522_085959M
cam1--20190522_091000M
cam1--20190522_091959M
cam1--20190522_093000M
cam1--20190522_093959M
cam1--20190522_094959M
cam1--20190522_095959M
cam1--20190522_101000M
cam1--20190522_101959M
cam1--20190522_104000M
cam1--20190522_110959M
01/13 
start stop bwd fwd

Webcam1 - Aktuell

Lokale Serverzeit 11:13 | 22.05.2019
Webcam-Lageplan

Flugwetter

[source: ADDS]
METAR
LOWL 220850Z 27017KT 9999 FEW008 BKN012 BKN020 13/11 Q1014 TEMPO BKN016 =
TAF LOWL 220515Z 2206/2306 25012KT 9999 -RA SCT012 BKN035 TX15/2215Z TN09/2303Z TEMPO 2206/2213 27017G27KT 4500 RA FEW007 BKN010 BECMG 2222/2301 26005KT NSW SCT030 BKN050 PROB40 TEMPO 2302/2306 27010KT 3000 BR BKN005
TAF
TAF LOWL 220515Z 2206/2306 25012KT 9999 -RA SCT012 BKN035 TX15/2215Z TN09/2303Z TEMPO 2206/2213 27017G27KT 4500 RA FEW007 BKN010 BECMG 2222/2301 26005KT NSW SCT030 BKN050 PROB40 TEMPO 2302/2306 27010KT 3000 BR BKN005 =